createdAt,value
2018-01-25T00:05:43.600Z,0
2018-01-25T00:06:20.394Z,0
2018-01-25T00:07:20.649Z,0
2018-01-25T00:08:20.912Z,0
2018-01-25T00:09:20.416Z,0
2018-01-25T00:10:21.369Z,0
2018-01-25T00:11:20.684Z,0
2018-01-25T00:12:20.884Z,0
2018-01-25T00:13:20.375Z,0
2018-01-25T00:14:20.544Z,0
2018-01-25T00:15:21.114Z,0
2018-01-25T00:16:20.113Z,0
2018-01-25T00:17:20.908Z,0
2018-01-25T00:18:20.597Z,0
2018-01-25T00:19:20.340Z,0
2018-01-25T00:20:21.405Z,0
2018-01-25T00:21:21.935Z,0
2018-01-25T00:22:20.065Z,0
2018-01-25T00:23:20.569Z,0
2018-01-25T00:24:20.553Z,0
2018-01-25T00:25:21.757Z,0
2018-01-25T00:26:20.555Z,0
2018-01-25T00:27:20.287Z,0
2018-01-25T00:28:20.552Z,0
2018-01-25T00:29:20.279Z,0
2018-01-25T00:30:22.144Z,0
2018-01-25T00:31:20.511Z,0
2018-01-25T00:32:20.262Z,0
2018-01-25T00:33:20.004Z,0
2018-01-25T00:34:20.768Z,0
2018-01-25T00:35:22.914Z,0
2018-01-25T00:36:20.241Z,0
2018-01-25T00:37:20.498Z,0
2018-01-25T00:38:20.498Z,0
2018-01-25T00:39:20.492Z,0
2018-01-25T00:40:22.445Z,0
2018-01-25T00:41:20.481Z,0
2018-01-25T00:42:20.229Z,0
2018-01-25T00:43:20.222Z,0
2018-01-25T00:44:20.711Z,0
2018-01-25T00:45:22.420Z,0
2018-01-25T00:46:20.184Z,0
2018-01-25T00:47:20.186Z,0
2018-01-25T00:48:20.180Z,0
2018-01-25T00:49:20.459Z,0
2018-01-25T00:50:22.154Z,0
2018-01-25T00:51:20.194Z,0
2018-01-25T00:52:20.429Z,0
2018-01-25T00:53:20.415Z,0
2018-01-25T00:54:20.172Z,0
2018-01-25T00:55:21.772Z,0
2018-01-25T00:56:20.446Z,0
2018-01-25T00:57:20.382Z,0
2018-01-25T00:58:20.641Z,0
2018-01-25T00:59:19.914Z,0
2018-01-25T01:00:21.858Z,0
2018-01-25T01:01:20.625Z,0
2018-01-25T01:02:20.375Z,0
2018-01-25T01:03:20.621Z,0
2018-01-25T01:04:20.388Z,0
2018-01-25T01:05:21.512Z,0
2018-01-25T01:06:20.365Z,0
2018-01-25T01:07:20.364Z,0
2018-01-25T01:08:20.325Z,0
2018-01-25T01:09:21.687Z,0
2018-01-25T01:10:21.674Z,0
2018-01-25T01:11:20.182Z,0
2018-01-25T01:12:21.333Z,0
2018-01-25T01:13:20.306Z,0
2018-01-25T01:14:20.063Z,0
2018-01-25T01:15:21.837Z,0
2018-01-25T01:16:20.040Z,0
2018-01-25T01:17:20.327Z,0
2018-01-25T01:18:20.291Z,0
2018-01-25T01:19:20.526Z,0
2018-01-25T01:20:20.994Z,0
2018-01-25T01:21:20.271Z,0
2018-01-25T01:22:20.262Z,0
2018-01-25T01:23:20.305Z,0
2018-01-25T01:24:20.264Z,0
2018-01-25T01:25:21.960Z,0
2018-01-25T01:26:20.261Z,0
2018-01-25T01:27:20.482Z,0
2018-01-25T01:28:20.026Z,0
2018-01-25T01:29:20.499Z,0
2018-01-25T01:30:21.873Z,0
2018-01-25T01:31:20.462Z,0
2018-01-25T01:32:20.197Z,0
2018-01-25T01:33:19.956Z,0
2018-01-25T01:34:20.196Z,0
2018-01-25T01:35:21.463Z,0
2018-01-25T01:36:22.343Z,0
2018-01-25T01:37:19.430Z,0
2018-01-25T01:38:20.464Z,0
2018-01-25T01:39:20.440Z,0
2018-01-25T01:40:21.852Z,0
2018-01-25T01:41:19.402Z,0
2018-01-25T01:42:19.916Z,0
2018-01-25T01:43:20.145Z,0
2018-01-25T01:44:20.140Z,0
2018-01-25T01:45:21.699Z,0
2018-01-25T01:46:20.425Z,0
2018-01-25T01:47:20.408Z,0
2018-01-25T01:48:20.144Z,0
2018-01-25T01:49:20.150Z,0
2018-01-25T01:50:21.581Z,0
2018-01-25T01:51:20.087Z,0
2018-01-25T01:52:20.407Z,0
2018-01-25T01:53:20.085Z,0
2018-01-25T01:54:20.071Z,0
2018-01-25T01:55:20.924Z,0
2018-01-25T01:56:20.064Z,0
2018-01-25T01:57:20.064Z,0
2018-01-25T01:58:19.538Z,0
2018-01-25T01:59:20.048Z,0
2018-01-25T02:00:20.964Z,0
2018-01-25T02:01:20.316Z,0
2018-01-25T02:02:19.779Z,0
2018-01-25T02:03:20.039Z,0
2018-01-25T02:04:20.024Z,0
2018-01-25T02:05:21.240Z,0
2018-01-25T02:06:21.051Z,0
2018-01-25T02:07:19.826Z,0
2018-01-25T02:08:19.995Z,0
2018-01-25T02:09:20.232Z,0
2018-01-25T02:10:21.748Z,0
2018-01-25T02:11:20.231Z,0
2018-01-25T02:12:20.225Z,0
2018-01-25T02:13:19.451Z,0
2018-01-25T02:14:19.956Z,0
2018-01-25T02:15:20.643Z,0
2018-01-25T02:16:19.433Z,0
2018-01-25T02:17:19.681Z,0
2018-01-25T02:18:19.685Z,0
2018-01-25T02:19:19.684Z,0
2018-01-25T02:20:21.303Z,0
2018-01-25T02:21:19.918Z,0
2018-01-25T02:22:19.913Z,0
2018-01-25T02:23:20.148Z,0
2018-01-25T02:24:19.406Z,0
2018-01-25T02:25:21.344Z,0
2018-01-25T02:26:20.133Z,0
2018-01-25T02:27:19.629Z,0
2018-01-25T02:28:19.612Z,0
2018-01-25T02:29:19.656Z,0
2018-01-25T02:30:20.575Z,0
2018-01-25T02:31:19.350Z,0
2018-01-25T02:32:19.590Z,0
2018-01-25T02:33:19.843Z,0
2018-01-25T02:34:19.328Z,0
2018-01-25T02:35:21.579Z,0
2018-01-25T02:36:19.853Z,0
2018-01-25T02:37:19.570Z,0
2018-01-25T02:38:20.084Z,0
2018-01-25T02:39:19.540Z,0
2018-01-25T02:40:21.114Z,0
2018-01-25T02:41:19.808Z,0
2018-01-25T02:42:20.042Z,0
2018-01-25T02:43:19.771Z,0
2018-01-25T02:44:19.777Z,0
2018-01-25T02:45:21.381Z,0
2018-01-25T02:46:19.769Z,0
2018-01-25T02:47:19.619Z,0
2018-01-25T02:48:19.728Z,0
2018-01-25T02:49:19.471Z,0
2018-01-25T02:50:21.746Z,0
2018-01-25T02:51:19.607Z,0
2018-01-25T02:52:19.695Z,0
2018-01-25T02:53:19.564Z,0
2018-01-25T02:54:19.366Z,0
2018-01-25T02:55:21.164Z,0
2018-01-25T02:56:19.562Z,0
2018-01-25T02:57:19.735Z,0
2018-01-25T02:58:20.012Z,0
2018-01-25T02:59:19.693Z,0
2018-01-25T03:00:20.835Z,0
2018-01-25T03:01:19.671Z,0
2018-01-25T03:02:19.910Z,0
2018-01-25T03:03:19.626Z,0
2018-01-25T03:04:19.684Z,0
2018-01-25T03:05:21.346Z,0
2018-01-25T03:06:19.910Z,0
2018-01-25T03:07:19.882Z,0
2018-01-25T03:08:19.894Z,0
2018-01-25T03:09:19.864Z,0
2018-01-25T03:10:20.390Z,0
2018-01-25T03:11:19.162Z,0
2018-01-25T03:12:19.569Z,0
2018-01-25T03:13:19.837Z,0
2018-01-25T03:14:19.837Z,0
2018-01-25T03:15:21.419Z,0
2018-01-25T03:16:19.559Z,0
2018-01-25T03:17:19.544Z,0
2018-01-25T03:18:19.346Z,0
2018-01-25T03:19:19.853Z,0
2018-01-25T03:20:21.340Z,0
2018-01-25T03:21:19.532Z,0
2018-01-25T03:22:19.772Z,0
2018-01-25T03:23:19.518Z,0
2018-01-25T03:24:19.519Z,0
2018-01-25T03:25:20.815Z,0
2018-01-25T03:26:19.769Z,0
2018-01-25T03:27:19.503Z,0
2018-01-25T03:28:19.245Z,0
2018-01-25T03:29:19.478Z,0
2018-01-25T03:30:20.738Z,0
2018-01-25T03:31:19.480Z,0
2018-01-25T03:32:18.956Z,0
2018-01-25T03:33:19.469Z,0
2018-01-25T03:34:19.697Z,0
2018-01-25T03:35:20.480Z,0
2018-01-25T03:36:19.438Z,0
2018-01-25T03:37:18.924Z,0
2018-01-25T03:38:19.436Z,0
2018-01-25T03:39:18.908Z,0
2018-01-25T03:40:20.950Z,0
2018-01-25T03:41:19.420Z,0
2018-01-25T03:42:18.895Z,0
2018-01-25T03:43:18.908Z,0
2018-01-25T03:44:19.162Z,0
2018-01-25T03:45:21.273Z,0
2018-01-25T03:46:19.113Z,0
2018-01-25T03:47:19.364Z,0
2018-01-25T03:48:19.151Z,0
2018-01-25T03:49:19.710Z,0
2018-01-25T03:50:20.350Z,0
2018-01-25T03:51:19.349Z,0
2018-01-25T03:52:18.884Z,0
2018-01-25T03:53:19.607Z,0
2018-01-25T03:54:19.081Z,0
2018-01-25T03:55:21.030Z,0
2018-01-25T03:56:19.055Z,0
2018-01-25T03:57:19.052Z,0
2018-01-25T03:58:19.547Z,0
2018-01-25T03:59:19.552Z,0
2018-01-25T04:00:20.083Z,0
2018-01-25T04:01:19.032Z,0
2018-01-25T04:02:19.293Z,0
2018-01-25T04:03:19.548Z,0
2018-01-25T04:04:19.030Z,0
2018-01-25T04:05:21.032Z,0
2018-01-25T04:06:18.999Z,0
2018-01-25T04:07:19.298Z,0
2018-01-25T04:08:18.988Z,0
2018-01-25T04:09:19.236Z,0
2018-01-25T04:10:21.285Z,0
2018-01-25T04:11:18.975Z,0
2018-01-25T04:12:18.974Z,0
2018-01-25T04:13:18.953Z,0
2018-01-25T04:14:19.207Z,0
2018-01-25T04:15:20.719Z,0
2018-01-25T04:16:18.951Z,0
2018-01-25T04:17:19.192Z,0
2018-01-25T04:18:18.923Z,0
2018-01-25T04:19:18.920Z,0
2018-01-25T04:20:20.815Z,0
2018-01-25T04:21:18.910Z,0
2018-01-25T04:22:19.143Z,0
2018-01-25T04:23:19.147Z,0
2018-01-25T04:24:19.140Z,0
2018-01-25T04:25:20.284Z,0
2018-01-25T04:26:19.436Z,0
2018-01-25T04:27:19.129Z,0
2018-01-25T04:28:18.620Z,0
2018-01-25T04:29:19.105Z,0
2018-01-25T04:30:21.125Z,0
2018-01-25T04:31:19.354Z,0
2018-01-25T04:32:18.857Z,0
2018-01-25T04:33:19.081Z,0
2018-01-25T04:34:19.080Z,0
2018-01-25T04:35:21.046Z,0
2018-01-25T04:36:19.067Z,0
2018-01-25T04:37:19.930Z,0
2018-01-25T04:38:19.066Z,0
2018-01-25T04:39:19.333Z,0
2018-01-25T04:40:21.296Z,0
2018-01-25T04:41:19.037Z,0
2018-01-25T04:42:19.292Z,0
2018-01-25T04:43:19.080Z,0
2018-01-25T04:44:18.580Z,0
2018-01-25T04:45:20.785Z,0
2018-01-25T04:46:19.282Z,0
2018-01-25T04:47:19.003Z,0
2018-01-25T04:48:19.016Z,0
2018-01-25T04:49:18.736Z,0
2018-01-25T04:50:21.111Z,0
2018-01-25T04:51:18.721Z,0
2018-01-25T04:52:19.236Z,0
2018-01-25T04:53:18.970Z,0
2018-01-25T04:54:18.705Z,0
2018-01-25T04:55:20.858Z,0
2018-01-25T04:56:18.959Z,0
2018-01-25T04:57:19.204Z,0
2018-01-25T04:58:18.940Z,0
2018-01-25T04:59:18.681Z,0
2018-01-25T05:00:20.150Z,0
2018-01-25T05:01:18.668Z,0
2018-01-25T05:02:18.677Z,0
2018-01-25T05:03:19.162Z,0
2018-01-25T05:04:18.652Z,0
2018-01-25T05:05:20.146Z,0
2018-01-25T05:06:18.646Z,0
2018-01-25T05:07:19.967Z,0
2018-01-25T05:08:18.629Z,0
2018-01-25T05:09:18.874Z,0
2018-01-25T05:10:20.634Z,0
2018-01-25T05:11:19.119Z,0
2018-01-25T05:12:18.884Z,0
2018-01-25T05:13:18.856Z,0
2018-01-25T05:14:18.854Z,0
2018-01-25T05:15:20.622Z,0
2018-01-25T05:16:18.853Z,0
2018-01-25T05:17:18.831Z,0
2018-01-25T05:18:18.572Z,0
2018-01-25T05:19:19.095Z,0
2018-01-25T05:20:20.411Z,0
2018-01-25T05:21:19.060Z,0
2018-01-25T05:22:19.092Z,0
2018-01-25T05:23:18.800Z,0
2018-01-25T05:24:18.785Z,0
2018-01-25T05:25:20.630Z,0
2018-01-25T05:26:18.533Z,0
2018-01-25T05:27:18.856Z,0
2018-01-25T05:28:18.533Z,0
2018-01-25T05:29:19.033Z,0
2018-01-25T05:30:19.605Z,0
2018-01-25T05:31:18.765Z,0
2018-01-25T05:32:18.810Z,0
2018-01-25T05:33:18.754Z,0
2018-01-25T05:34:18.255Z,0
2018-01-25T05:35:19.966Z,0
2018-01-25T05:36:18.474Z,0
2018-01-25T05:37:21.025Z,0
2018-01-25T05:38:18.721Z,0
2018-01-25T05:39:18.975Z,0
2018-01-25T05:40:21.124Z,0
2018-01-25T05:41:18.698Z,0
2018-01-25T05:42:18.955Z,0
2018-01-25T05:43:18.740Z,0
2018-01-25T05:44:18.697Z,0
2018-01-25T05:45:20.710Z,0
2018-01-25T05:46:18.428Z,0
2018-01-25T05:47:18.426Z,0
2018-01-25T05:48:18.169Z,0
2018-01-25T05:49:18.931Z,0
2018-01-25T05:50:20.333Z,0
2018-01-25T05:51:18.416Z,0
2018-01-25T05:52:18.403Z,0
2018-01-25T05:53:18.655Z,0
2018-01-25T05:54:18.409Z,0
2018-01-25T05:55:19.291Z,0
2018-01-25T05:56:18.396Z,0
2018-01-25T05:57:18.385Z,0
2018-01-25T05:58:18.392Z,0
2018-01-25T05:59:18.376Z,0
2018-01-25T06:00:20.331Z,0
2018-01-25T06:01:18.619Z,0
2018-01-25T06:02:18.370Z,0
2018-01-25T06:03:18.364Z,0
2018-01-25T06:04:18.353Z,0
2018-01-25T06:05:19.803Z,0
2018-01-25T06:06:18.347Z,0
2018-01-25T06:07:18.333Z,0
2018-01-25T06:08:19.905Z,0
2018-01-25T06:09:18.832Z,0
2018-01-25T06:10:19.848Z,0
2018-01-25T06:11:18.311Z,0
2018-01-25T06:12:18.578Z,0
2018-01-25T06:13:18.822Z,0
2018-01-25T06:14:17.796Z,0
2018-01-25T06:15:20.313Z,0
2018-01-25T06:16:18.795Z,0
2018-01-25T06:17:18.064Z,0
2018-01-25T06:18:18.545Z,0
2018-01-25T06:19:18.525Z,0
2018-01-25T06:20:19.808Z,0
2018-01-25T06:21:18.006Z,0
2018-01-25T06:22:18.008Z,0
2018-01-25T06:23:18.503Z,0
2018-01-25T06:24:18.503Z,0
2018-01-25T06:25:20.802Z,0
2018-01-25T06:26:18.502Z,0
2018-01-25T06:27:18.238Z,0
2018-01-25T06:28:17.990Z,0
2018-01-25T06:29:18.492Z,0
2018-01-25T06:30:20.631Z,0
2018-01-25T06:31:18.722Z,0
2018-01-25T06:32:18.476Z,0
2018-01-25T06:33:18.456Z,0
2018-01-25T06:34:17.974Z,0
2018-01-25T06:35:19.855Z,0
2018-01-25T06:36:18.446Z,0
2018-01-25T06:37:18.449Z,0
2018-01-25T06:38:18.185Z,0
2018-01-25T06:39:18.180Z,0
2018-01-25T06:40:19.776Z,0
2018-01-25T06:41:18.164Z,0
2018-01-25T06:42:18.669Z,0
2018-01-25T06:43:18.152Z,0
2018-01-25T06:44:18.673Z,0
2018-01-25T06:45:20.256Z,0
2018-01-25T06:46:18.403Z,0
2018-01-25T06:47:18.145Z,0
2018-01-25T06:48:18.141Z,0
2018-01-25T06:49:18.372Z,0
2018-01-25T06:50:20.460Z,0
2018-01-25T06:51:18.375Z,0
2018-01-25T06:52:17.854Z,0
2018-01-25T06:53:18.105Z,0
2018-01-25T06:54:18.655Z,0
2018-01-25T06:55:20.298Z,0
2018-01-25T06:56:18.095Z,0
2018-01-25T06:57:18.098Z,0
2018-01-25T06:58:18.099Z,0
2018-01-25T06:59:18.592Z,0
2018-01-25T07:00:19.577Z,0
2018-01-25T07:01:18.601Z,0
2018-01-25T07:02:18.300Z,0
2018-01-25T07:03:18.047Z,0
2018-01-25T07:04:18.052Z,0
2018-01-25T07:05:19.702Z,0
2018-01-25T07:06:18.034Z,5
2018-01-25T07:07:17.787Z,5
2018-01-25T07:08:19.583Z,5
2018-01-25T07:09:18.273Z,5
2018-01-25T07:10:19.608Z,5
2018-01-25T07:11:18.262Z,5
2018-01-25T07:12:18.618Z,5
2018-01-25T07:13:17.771Z,5
2018-01-25T07:14:17.984Z,5
2018-01-25T07:15:19.537Z,5
2018-01-25T07:16:18.494Z,5
2018-01-25T07:17:17.994Z,5
2018-01-25T07:18:17.974Z,5
2018-01-25T07:19:18.223Z,10
2018-01-25T07:20:20.682Z,10
2018-01-25T07:21:18.199Z,10
2018-01-25T07:22:18.191Z,10
2018-01-25T07:23:17.952Z,10
2018-01-25T07:24:18.180Z,10
2018-01-25T07:25:19.611Z,10
2018-01-25T07:26:17.922Z,10
2018-01-25T07:27:18.420Z,10
2018-01-25T07:28:18.172Z,10
2018-01-25T07:29:17.907Z,10
2018-01-25T07:30:20.583Z,15
2018-01-25T07:31:17.894Z,15
2018-01-25T07:32:17.388Z,15
2018-01-25T07:33:18.382Z,15
2018-01-25T07:34:17.632Z,15
2018-01-25T07:35:18.975Z,15
2018-01-25T07:36:18.112Z,20
2018-01-25T07:37:17.864Z,20
2018-01-25T07:38:18.566Z,20
2018-01-25T07:39:18.353Z,20
2018-01-25T07:40:20.531Z,25
2018-01-25T07:41:18.101Z,25
2018-01-25T07:42:17.632Z,25
2018-01-25T07:43:18.089Z,25
2018-01-25T07:44:17.833Z,25
2018-01-25T07:45:18.771Z,25
2018-01-25T07:46:18.058Z,25
2018-01-25T07:47:18.062Z,25
2018-01-25T07:48:18.067Z,30
2018-01-25T07:49:17.791Z,30
2018-01-25T07:50:19.390Z,30
2018-01-25T07:51:18.036Z,30
2018-01-25T07:52:17.788Z,30
2018-01-25T07:53:17.779Z,30
2018-01-25T07:54:18.025Z,30
2018-01-25T07:55:19.657Z,30
2018-01-25T07:56:17.510Z,30
2018-01-25T07:57:18.020Z,35
2018-01-25T07:58:18.007Z,35
2018-01-25T07:59:18.008Z,35
2018-01-25T08:00:20.121Z,35
2018-01-25T08:01:18.237Z,40
2018-01-25T08:02:17.982Z,40
2018-01-25T08:03:17.475Z,40
2018-01-25T08:04:18.043Z,45
2018-01-25T08:05:19.663Z,45
2018-01-25T08:06:17.974Z,50
2018-01-25T08:07:17.705Z,50
2018-01-25T08:08:21.863Z,50
2018-01-25T08:09:17.705Z,50
2018-01-25T08:10:20.017Z,50
2018-01-25T08:11:17.439Z,50
2018-01-25T08:12:18.180Z,55
2018-01-25T08:13:17.432Z,55
2018-01-25T08:14:17.924Z,55
2018-01-25T08:15:19.837Z,60
2018-01-25T08:16:17.653Z,60
2018-01-25T08:17:18.344Z,60
2018-01-25T08:18:17.649Z,60
2018-01-25T08:19:18.156Z,65
2018-01-25T08:20:19.539Z,65
2018-01-25T08:21:17.916Z,65
2018-01-25T08:22:17.942Z,65
2018-01-25T08:23:17.378Z,70
2018-01-25T08:24:17.376Z,70
2018-01-25T08:25:19.205Z,70
2018-01-25T08:26:17.614Z,70
2018-01-25T08:27:17.864Z,70
2018-01-25T08:28:17.605Z,75
2018-01-25T08:29:17.863Z,75
2018-01-25T08:30:19.615Z,75
2018-01-25T08:31:17.098Z,75
2018-01-25T08:32:17.587Z,75
2018-01-25T08:33:17.587Z,75
2018-01-25T08:34:17.080Z,80
2018-01-25T08:35:19.943Z,80
2018-01-25T08:36:17.578Z,80
2018-01-25T08:37:17.832Z,85
2018-01-25T08:38:17.809Z,85
2018-01-25T08:39:17.839Z,85
2018-01-25T08:40:18.767Z,85
2018-01-25T08:41:17.314Z,90
2018-01-25T08:42:18.051Z,90
2018-01-25T08:43:17.785Z,85
2018-01-25T08:44:17.539Z,85
2018-01-25T08:45:51.032Z,85
2018-01-25T08:46:17.774Z,90
2018-01-25T08:47:17.591Z,90
2018-01-25T08:48:18.016Z,90
2018-01-25T08:49:17.814Z,90
2018-01-25T08:50:19.758Z,90
2018-01-25T08:51:18.016Z,90
2018-01-25T08:52:17.510Z,90
2018-01-25T08:53:17.246Z,90
2018-01-25T08:54:17.501Z,95
2018-01-25T08:55:19.597Z,95
2018-01-25T08:56:17.745Z,95
2018-01-25T08:57:17.740Z,95
2018-01-25T08:58:16.977Z,100
2018-01-25T08:59:18.060Z,100
2018-01-25T09:00:20.300Z,105
2018-01-25T09:01:17.219Z,105
2018-01-25T09:02:17.739Z,110
2018-01-25T09:03:17.465Z,110
2018-01-25T09:04:17.992Z,110
2018-01-25T09:05:19.296Z,115
2018-01-25T09:06:17.462Z,115
2018-01-25T09:07:17.443Z,115
2018-01-25T09:08:17.195Z,115
2018-01-25T09:09:18.675Z,115
2018-01-25T09:10:20.027Z,115
2018-01-25T09:11:17.181Z,115
2018-01-25T09:12:17.175Z,115
2018-01-25T09:13:17.669Z,120
2018-01-25T09:14:17.933Z,120
2018-01-25T09:15:18.933Z,120
2018-01-25T09:16:17.408Z,125
2018-01-25T09:17:17.403Z,125
2018-01-25T09:18:17.155Z,130
2018-01-25T09:19:17.208Z,125
2018-01-25T09:20:19.029Z,130
2018-01-25T09:21:17.521Z,130
2018-01-25T09:22:17.631Z,135
2018-01-25T09:23:17.391Z,140
2018-01-25T09:24:17.884Z,140
2018-01-25T09:25:19.126Z,140
2018-01-25T09:26:17.380Z,140
2018-01-25T09:27:17.636Z,140
2018-01-25T09:28:17.372Z,140
2018-01-25T09:29:17.611Z,140
2018-01-25T09:30:19.185Z,140
2018-01-25T09:31:17.611Z,140
2018-01-25T09:32:17.361Z,140
2018-01-25T09:33:17.614Z,140
2018-01-25T09:34:17.342Z,140
2018-01-25T09:35:18.427Z,140
2018-01-25T09:36:17.084Z,140
2018-01-25T09:37:17.368Z,140
2018-01-25T09:38:17.319Z,140
2018-01-25T09:39:18.118Z,140
2018-01-25T09:40:18.567Z,140
2018-01-25T09:41:17.626Z,145
2018-01-25T09:42:16.797Z,145
2018-01-25T09:43:17.358Z,145
2018-01-25T09:44:17.553Z,150
2018-01-25T09:45:19.547Z,145
2018-01-25T09:46:17.792Z,150
2018-01-25T09:47:17.539Z,150
2018-01-25T09:48:17.540Z,150
2018-01-25T09:49:17.306Z,150
2018-01-25T09:50:19.573Z,150
2018-01-25T09:51:17.279Z,155
2018-01-25T09:52:17.019Z,155
2018-01-25T09:53:16.756Z,155
2018-01-25T09:54:17.565Z,160
2018-01-25T09:55:19.454Z,160
2018-01-25T09:56:17.512Z,160
2018-01-25T09:57:17.515Z,160
2018-01-25T09:58:17.253Z,160
2018-01-25T09:59:17.258Z,165
2018-01-25T10:00:19.571Z,160
2018-01-25T10:01:17.757Z,160
2018-01-25T10:02:17.757Z,160
2018-01-25T10:03:17.243Z,160
2018-01-25T10:04:17.228Z,160
2018-01-25T10:05:18.811Z,160
2018-01-25T10:06:17.218Z,155
2018-01-25T10:07:16.968Z,160
2018-01-25T10:08:17.750Z,160
2018-01-25T10:09:17.457Z,160
2018-01-25T10:10:18.430Z,165
2018-01-25T10:11:17.210Z,165
2018-01-25T10:12:17.220Z,165
2018-01-25T10:13:17.944Z,165
2018-01-25T10:14:17.472Z,165
2018-01-25T10:15:18.669Z,165
2018-01-25T10:16:17.207Z,165
2018-01-25T10:17:17.201Z,170
2018-01-25T10:18:17.836Z,160
2018-01-25T10:19:17.703Z,160
2018-01-25T10:20:18.698Z,160
2018-01-25T10:21:17.492Z,165
2018-01-25T10:22:17.434Z,160
2018-01-25T10:53:17.283Z,160
2018-01-25T10:54:16.755Z,160
2018-01-25T10:55:18.870Z,160
2018-01-25T10:56:17.262Z,160
2018-01-25T10:57:17.260Z,160
2018-01-25T10:58:16.976Z,160
2018-01-25T10:59:16.975Z,160
2018-01-25T11:00:18.022Z,160
2018-01-25T11:01:16.727Z,155
2018-01-25T11:02:17.465Z,155
2018-01-25T11:03:17.274Z,155
2018-01-25T11:04:17.203Z,155
2018-01-25T11:05:18.668Z,155
2018-01-25T11:06:17.212Z,155
2018-01-25T11:07:17.448Z,155
2018-01-25T11:08:16.951Z,155
2018-01-25T11:09:17.189Z,155
2018-01-25T11:10:19.361Z,155
2018-01-25T11:11:16.942Z,160
2018-01-25T11:12:17.446Z,160
2018-01-25T11:13:16.934Z,160
2018-01-25T11:14:16.937Z,160
2018-01-25T11:15:18.989Z,160
2018-01-25T11:16:16.913Z,160
2018-01-25T11:17:17.282Z,160
2018-01-25T11:18:16.945Z,160
2018-01-25T11:19:16.906Z,160
2018-01-25T11:20:19.027Z,160
2018-01-25T11:21:17.413Z,160
2018-01-25T11:22:17.164Z,160
2018-01-25T11:23:16.394Z,165
2018-01-25T11:24:16.907Z,165
2018-01-25T11:25:18.087Z,165
2018-01-25T11:26:17.183Z,165
2018-01-25T11:27:16.901Z,165
2018-01-25T11:28:17.142Z,165
2018-01-25T11:29:16.884Z,165
2018-01-25T11:30:18.194Z,165
2018-01-25T11:31:17.389Z,165
2018-01-25T11:32:16.892Z,165
2018-01-25T11:33:17.355Z,165
2018-01-25T11:34:17.142Z,165
2018-01-25T11:35:18.317Z,165
2018-01-25T11:36:17.187Z,165
2018-01-25T11:37:16.950Z,165
2018-01-25T11:38:16.618Z,160
2018-01-25T11:39:17.385Z,160
2018-01-25T11:40:18.361Z,160
2018-01-25T11:41:16.868Z,160
2018-01-25T11:42:17.110Z,160
2018-01-25T11:43:16.611Z,160
2018-01-25T11:44:16.661Z,160
2018-01-25T11:45:18.332Z,160
2018-01-25T11:46:17.109Z,160
2018-01-25T11:47:16.925Z,160
2018-01-25T11:48:17.099Z,160
2018-01-25T11:49:16.842Z,155
2018-01-25T11:50:18.644Z,155
2018-01-25T11:51:17.345Z,155
2018-01-25T11:52:17.101Z,155
2018-01-25T11:53:16.640Z,155
2018-01-25T11:54:17.096Z,155
2018-01-25T11:55:18.784Z,155
2018-01-25T11:56:16.585Z,155
2018-01-25T11:57:16.841Z,150
2018-01-25T11:58:17.084Z,155
2018-01-25T11:59:17.088Z,160
2018-01-25T12:00:18.875Z,155
2018-01-25T12:01:16.830Z,155
2018-01-25T12:02:16.327Z,160
2018-01-25T12:03:17.078Z,160
2018-01-25T12:04:16.841Z,160
2018-01-25T12:05:18.543Z,160
2018-01-25T12:06:16.827Z,160
2018-01-25T12:07:16.568Z,160
2018-01-25T12:08:16.931Z,160
2018-01-25T12:09:17.098Z,160
2018-01-25T12:10:18.858Z,160
2018-01-25T12:11:16.828Z,155
2018-01-25T12:12:17.065Z,155
2018-01-25T12:13:17.879Z,155
2018-01-25T12:14:16.823Z,155
2018-01-25T12:15:18.231Z,155
2018-01-25T12:16:17.307Z,155
2018-01-25T12:17:17.316Z,155
2018-01-25T12:18:18.403Z,155
2018-01-25T12:19:17.065Z,155
2018-01-25T12:20:18.859Z,155
2018-01-25T12:21:16.800Z,150
2018-01-25T12:22:17.067Z,150
2018-01-25T12:23:16.536Z,150
2018-01-25T12:24:16.540Z,150
2018-01-25T12:25:18.146Z,150
2018-01-25T12:26:17.047Z,150
2018-01-25T12:27:17.041Z,150
2018-01-25T12:28:16.790Z,155
2018-01-25T12:29:17.058Z,155
2018-01-25T12:30:18.022Z,155
2018-01-25T12:31:16.810Z,155
2018-01-25T12:32:16.544Z,155
2018-01-25T12:33:17.310Z,155
2018-01-25T12:34:16.804Z,160
2018-01-25T12:35:18.070Z,160
2018-01-25T12:36:16.781Z,160
2018-01-25T12:37:17.286Z,160
2018-01-25T12:38:17.038Z,155
2018-01-25T12:39:17.031Z,155
2018-01-25T12:40:18.541Z,155
2018-01-25T12:41:17.295Z,150
2018-01-25T12:42:16.774Z,150
2018-01-25T12:43:17.037Z,150
2018-01-25T12:44:16.527Z,145
2018-01-25T12:45:18.181Z,145
2018-01-25T12:46:16.770Z,145
2018-01-25T12:47:16.779Z,145
2018-01-25T12:48:17.026Z,145
2018-01-25T12:49:17.281Z,145
2018-01-25T12:50:18.666Z,145
2018-01-25T12:51:16.527Z,145
2018-01-25T12:52:16.763Z,150
2018-01-25T12:53:17.276Z,150
2018-01-25T12:54:16.767Z,150
2018-01-25T12:55:18.448Z,145
2018-01-25T12:56:17.022Z,145
2018-01-25T12:57:17.008Z,145
2018-01-25T12:58:16.763Z,140
2018-01-25T12:59:16.515Z,140
2018-01-25T13:00:17.665Z,140
2018-01-25T13:01:16.503Z,140
2018-01-25T13:02:16.832Z,140
2018-01-25T13:03:17.045Z,140
2018-01-25T13:04:16.750Z,140
2018-01-25T13:05:18.820Z,135
2018-01-25T13:06:16.748Z,135
2018-01-25T13:07:17.009Z,135
2018-01-25T13:08:17.260Z,135
2018-01-25T13:09:17.002Z,130
2018-01-25T13:10:18.741Z,130
2018-01-25T13:11:16.761Z,130
2018-01-25T13:12:17.020Z,125
2018-01-25T13:13:17.254Z,125
2018-01-25T13:14:16.745Z,120
2018-01-25T13:15:18.341Z,120
2018-01-25T13:16:16.760Z,115
2018-01-25T13:17:17.096Z,115
2018-01-25T13:18:17.014Z,115
2018-01-25T13:19:17.367Z,115
2018-01-25T13:20:19.054Z,115
2018-01-25T13:21:17.006Z,110
2018-01-25T13:22:16.753Z,110
2018-01-25T13:23:17.007Z,110
2018-01-25T13:24:16.985Z,105
2018-01-25T13:25:18.702Z,105
2018-01-25T13:26:16.981Z,105
2018-01-25T13:27:17.378Z,105
2018-01-25T13:28:17.105Z,105
2018-01-25T13:29:17.034Z,105
2018-01-25T13:30:18.901Z,105
2018-01-25T13:31:16.982Z,105
2018-01-25T13:32:16.486Z,100
2018-01-25T13:33:16.477Z,100
2018-01-25T13:34:16.995Z,100
2018-01-25T13:35:18.432Z,100
2018-01-25T13:36:17.225Z,100
2018-01-25T13:37:16.974Z,100
2018-01-25T13:38:17.069Z,100
2018-01-25T13:39:16.720Z,100
2018-01-25T13:40:18.328Z,105
2018-01-25T13:41:16.756Z,105
2018-01-25T13:42:16.980Z,105
2018-01-25T13:43:16.971Z,110
2018-01-25T13:44:16.463Z,110
2018-01-25T13:45:18.252Z,110
2018-01-25T13:46:16.977Z,115
2018-01-25T13:47:17.230Z,115
2018-01-25T13:48:17.218Z,120
2018-01-25T13:49:16.715Z,120
2018-01-25T13:50:19.342Z,120
2018-01-25T13:51:16.484Z,120
2018-01-25T13:52:16.712Z,120
2018-01-25T13:53:16.752Z,120
2018-01-25T13:54:16.723Z,120
2018-01-25T13:55:18.171Z,115
2018-01-25T13:56:16.743Z,115
2018-01-25T13:57:16.738Z,110
2018-01-25T13:58:16.571Z,105
2018-01-25T13:59:17.067Z,100
2018-01-25T14:00:18.140Z,100
2018-01-25T14:01:17.129Z,95
2018-01-25T14:02:17.032Z,95
2018-01-25T14:03:16.810Z,95
2018-01-25T14:04:16.776Z,90
2018-01-25T14:05:19.803Z,90
2018-01-25T14:06:19.613Z,90
2018-01-25T14:07:18.980Z,90
2018-01-25T14:08:20.482Z,85
2018-01-25T14:09:20.938Z,85
2018-01-25T14:10:20.511Z,85
2018-01-25T14:11:19.054Z,85
2018-01-25T14:12:19.633Z,85
2018-01-25T14:13:19.492Z,80
2018-01-25T14:14:19.620Z,80
2018-01-25T14:15:19.318Z,80
2018-01-25T14:16:19.765Z,80
2018-01-25T14:17:19.420Z,80
2018-01-25T14:18:18.924Z,80
2018-01-25T14:19:19.284Z,85
2018-01-25T14:20:20.665Z,80
2018-01-25T14:21:19.697Z,80
2018-01-25T14:22:19.348Z,80
2018-01-25T14:23:19.201Z,85
2018-01-25T14:24:20.329Z,85
2018-01-25T14:25:19.966Z,85
2018-01-25T14:26:20.694Z,85
2018-01-25T14:27:19.778Z,85
2018-01-25T14:28:19.806Z,85
2018-01-25T14:29:18.566Z,85
2018-01-25T14:30:20.023Z,85
2018-01-25T14:31:19.574Z,85
2018-01-25T14:32:19.733Z,85
2018-01-25T14:33:19.801Z,80
2018-01-25T14:34:20.175Z,80
2018-01-25T14:35:19.595Z,80
2018-01-25T14:36:18.792Z,80
2018-01-25T14:37:19.507Z,80
2018-01-25T14:38:19.214Z,80
2018-01-25T14:39:17.740Z,80
2018-01-25T14:40:18.629Z,80
2018-01-25T14:41:16.979Z,80
2018-01-25T14:42:17.194Z,80
2018-01-25T14:43:16.695Z,80
2018-01-25T14:44:16.935Z,80
2018-01-25T14:45:18.666Z,80
2018-01-25T14:46:16.174Z,80
2018-01-25T14:47:16.695Z,80
2018-01-25T14:48:16.417Z,80
2018-01-25T14:49:16.907Z,85
2018-01-25T14:50:18.962Z,85
2018-01-25T14:51:17.177Z,85
2018-01-25T14:52:16.910Z,85
2018-01-25T14:53:16.916Z,85
2018-01-25T14:54:16.660Z,85
2018-01-25T14:55:18.078Z,85
2018-01-25T14:56:16.897Z,80